Quilcene, WA (98376)

5:25 AM PDT on May 28, 2015 (GMT -0700)
Lords Lake Loop | | Change Station
CLOSE
Current Station
Personal Weather Station
Location: Quilcene, WA
Elevation: -3 ft
Nearby Weather Stations

Elev -3 ft 47.82 °N, 122.87 °W | Updated 14 minutes ago

Partly Cloudy
Partly Cloudy
55.1 °F
Feels Like 55.1 °F
N
0.0
Wind Variable Wind from North
Gusts 0.0 mph

Today
High -- | Low -- °F
--% Chance of Precip.
Yesterday
High -- | Low -- °F
Precip. -- in
5:19 AM 8:58 PM
Waxing Gibbous, 75% visible
Pressure 30.07 in
Visibility 0.8 miles
Clouds
Dew Point 55 °F
Humidity 100%
Rainfall -999.00 in
Snow Depth Not available.
UV Not available.
Pollen 8.40 out of 12
Air Quality Not available.
Flu Activity Sporadic
SPECI KPAE 281218Z AUTO VRB03KT 3/4SM R16R/1000V1400FT BR VV001 12/11 A3007 RMK AO2 T01220111

More Conditions Fewer Conditions

Pressure 30.07 in
Visibility 0.8 miles
Clouds
Dew Point 55 °F
Humidity 100%
Rainfall -999.00 in
Snow Depth Not available.
UV Not available.
Pollen 8.40 out of 12
Air Quality Not available.
Flu Activity Sporadic
SPECI KPAE 281218Z AUTO VRB03KT 3/4SM R16R/1000V1400FT BR VV001 12/11 A3007 RMK AO2 T01220111

More Conditions Fewer Conditions

10-Day Weather Forecast

Almanac

Astronomy

May. 28, 2015 Rise Set
Actual Time
Civil Twilight
Nautical Twilight
Astronomical Twilight
Moon
Length of Visible Light
Length of Day
Tomorrow will be .
, % of the Moon is Illuminated

Today's Extremes

State Highs State Lows

Community

WunderPhotos

Upload Photos

1,824,960 photos uploaded!

WunderBlogs® & News

Nearby

Air Quality

  Air Quality AQ Index Pollutant
Not available.

Snow Depth

Station Depth Elevation

Earthquake Activity

City Distance Mag. Time & Date
Minimum magnitude displayed is 2.5.

Coastal Water Temperatures

Place Temperature

Stations

Nearby Weather Stations

Station Location Temp. Windchill Dew Point Humidity Wind Precip. Elev Updated Type